YSWG/WGA METAR and TAF weather

Enter ICAO airport designator
Station Type Date Time Source
YSWG METAR 2021/07/30 07:00 UTC NOAA

YSWG 300700Z AUTO 01004KT 9999 // OVC110 11/04 Q1017


Station Type Date Time Source
YSWG Decoded METAR 2021/07/30 07:00 UTC NOAA

Wagga Airport, Australia (YSWG) 35-09S 147-27E 213M
Jul 30, 2021 - 03:00 AM EDT / 2021.07.30 0700 UTC
Wind: from the N (010 degrees) at 5 MPH (4 KT):0
Visibility: greater than 7 mile(s):0
Sky conditions: overcast
Temperature: 51 F (11 C)
Dew Point: 39 F (4 C)
Relative Humidity: 61%
Pressure (altimeter): 30.03 in. Hg (1017 hPa)
ob: YSWG 300700Z AUTO 01004KT 9999 // OVC110 11/04 Q1017
cycle: 7

Station Type Date Time Source
YSWG TAF 2018/05/25 18:03 UTC NOAA

TAF YSWG 251649Z 2518/2608 07008KT CAVOK

Example: see airport list